createdAt,value
2023-01-31T00:02:29.384Z,7.57
2023-01-31T00:04:57.530Z,7.10
2023-01-31T00:07:25.698Z,7.87
2023-01-31T00:09:53.944Z,6.63
2023-01-31T00:12:22.103Z,7.83
2023-01-31T00:14:50.265Z,7.40
2023-01-31T00:17:18.388Z,7.00
2023-01-31T00:19:47.917Z,7.00
2023-01-31T00:22:16.078Z,6.83
2023-01-31T00:24:44.217Z,6.87
2023-01-31T00:27:12.384Z,6.27
2023-01-31T00:29:40.560Z,7.17
2023-01-31T00:32:08.815Z,6.70
2023-01-31T00:34:37.039Z,5.77
2023-01-31T00:37:07.094Z,5.77
2023-01-31T00:39:35.675Z,6.17
2023-01-31T00:42:03.893Z,6.23
2023-01-31T00:44:32.026Z,6.10
2023-01-31T00:47:00.200Z,6.97
2023-01-31T00:49:28.374Z,6.90
2023-01-31T00:51:56.569Z,7.87
2023-01-31T00:54:26.089Z,6.97
2023-01-31T00:56:54.260Z,6.80
2023-01-31T00:59:22.401Z,6.93
2023-01-31T01:01:50.589Z,6.77
2023-01-31T01:04:18.771Z,6.57
2023-01-31T01:06:47.640Z,7.17
2023-01-31T01:09:15.791Z,5.27
2023-01-31T01:11:45.369Z,5.77
2023-01-31T01:14:13.547Z,6.27
2023-01-31T01:16:42.254Z,6.40
2023-01-31T01:19:17.886Z,6.57
2023-01-31T01:21:46.176Z,5.67
2023-01-31T01:24:17.037Z,6.13
2023-01-31T01:26:47.120Z,6.80
2023-01-31T01:29:15.290Z,6.20
2023-01-31T01:31:43.598Z,5.80
2023-01-31T01:34:15.200Z,7.07
2023-01-31T01:36:47.484Z,5.50
2023-01-31T01:39:16.571Z,5.90
2023-01-31T01:41:46.803Z,7.00
2023-01-31T01:44:44.592Z,6.83
2023-01-31T01:47:17.958Z,7.57
2023-01-31T01:49:50.434Z,5.80
2023-01-31T01:52:19.659Z,4.47
2023-01-31T01:54:56.059Z,6.80
2023-01-31T01:57:31.760Z,6.73
2023-01-31T02:00:09.562Z,6.53
2023-01-31T02:02:38.370Z,6.00
2023-01-31T02:05:09.422Z,6.50
2023-01-31T02:07:37.718Z,6.23
2023-01-31T02:10:13.049Z,4.73
2023-01-31T02:12:43.155Z,6.50
2023-01-31T02:15:12.336Z,6.03
2023-01-31T02:17:40.556Z,5.53
2023-01-31T02:20:30.824Z,4.50
2023-01-31T02:23:22.375Z,4.77
2023-01-31T02:26:27.260Z,5.10
2023-01-31T02:29:25.612Z,6.17
2023-01-31T02:32:23.843Z,5.13
2023-01-31T02:35:03.422Z,5.70
2023-01-31T02:37:38.847Z,5.17
2023-01-31T02:40:18.584Z,4.30
2023-01-31T02:42:55.952Z,4.53
2023-01-31T02:45:32.803Z,5.20
2023-01-31T02:48:09.046Z,4.67
2023-01-31T02:50:44.091Z,4.80
2023-01-31T02:53:16.459Z,4.87
2023-01-31T02:56:08.521Z,4.10
2023-01-31T02:58:39.703Z,4.00
2023-01-31T03:01:12.046Z,4.30
2023-01-31T03:03:40.538Z,3.83
2023-01-31T03:07:00.082Z,4.60
2023-01-31T03:09:38.061Z,4.20
2023-01-31T03:12:25.704Z,4.27
2023-01-31T03:15:06.100Z,3.80
2023-01-31T03:17:47.234Z,4.23
2023-01-31T03:20:20.834Z,3.90
2023-01-31T03:22:54.667Z,3.90
2023-01-31T03:25:26.238Z,3.83
2023-01-31T03:27:58.672Z,4.20
2023-01-31T03:30:33.410Z,3.40
2023-01-31T03:33:07.536Z,3.70
2023-01-31T03:35:37.821Z,3.40
2023-01-31T03:38:15.615Z,2.07
2023-01-31T03:40:53.646Z,3.70
2023-01-31T03:43:27.206Z,4.23
2023-01-31T03:46:01.173Z,4.20
2023-01-31T03:48:36.543Z,3.30
2023-01-31T03:51:08.576Z,3.87
2023-01-31T03:53:42.155Z,4.60
2023-01-31T03:56:17.449Z,3.80
2023-01-31T03:58:50.884Z,3.87
2023-01-31T04:01:20.912Z,3.90
2023-01-31T04:03:53.104Z,3.77
2023-01-31T04:06:21.699Z,3.60
2023-01-31T04:08:51.424Z,4.80
2023-01-31T04:11:22.991Z,4.77
2023-01-31T04:13:51.139Z,4.67
2023-01-31T04:16:19.424Z,3.90
2023-01-31T04:18:47.642Z,4.27
2023-01-31T04:21:16.049Z,4.67
2023-01-31T04:23:44.226Z,4.40
2023-01-31T04:26:13.833Z,4.30
2023-01-31T04:28:42.261Z,3.70
2023-01-31T04:31:10.859Z,3.93
2023-01-31T04:33:39.087Z,4.27
2023-01-31T04:36:08.602Z,3.27
2023-01-31T04:38:37.139Z,3.60
2023-01-31T04:41:05.711Z,3.40
2023-01-31T04:43:35.253Z,3.73
2023-01-31T04:46:03.520Z,3.67
2023-01-31T04:48:31.867Z,4.50
2023-01-31T04:51:00.018Z,3.23
2023-01-31T04:53:28.225Z,3.97
2023-01-31T04:55:56.823Z,3.30
2023-01-31T04:58:26.927Z,3.73
2023-01-31T05:00:56.888Z,3.33
2023-01-31T05:03:25.095Z,3.37
2023-01-31T05:05:53.381Z,2.73
2023-01-31T05:08:21.536Z,3.47
2023-01-31T05:11:02.305Z,3.43
2023-01-31T05:13:32.786Z,2.47
2023-01-31T05:16:02.612Z,2.93
2023-01-31T05:18:31.370Z,2.77
2023-01-31T05:21:02.469Z,3.60
2023-01-31T05:23:31.429Z,2.73
2023-01-31T05:25:59.665Z,3.30
2023-01-31T05:28:27.866Z,3.30
2023-01-31T05:31:05.697Z,3.00
2023-01-31T05:33:34.511Z,2.30
2023-01-31T05:36:03.711Z,3.13
2023-01-31T05:38:31.944Z,2.90
2023-01-31T05:41:00.117Z,2.50
2023-01-31T05:43:28.271Z,3.07
2023-01-31T05:45:56.427Z,4.30
2023-01-31T05:48:26.030Z,2.73
2023-01-31T05:50:54.183Z,3.27
2023-01-31T05:53:22.790Z,3.40
2023-01-31T05:55:51.007Z,3.40
2023-01-31T05:58:19.185Z,3.10
2023-01-31T06:00:47.378Z,3.17
2023-01-31T06:03:15.623Z,3.73
2023-01-31T06:05:45.214Z,3.00
2023-01-31T06:08:13.929Z,3.40
2023-01-31T06:10:42.064Z,3.37
2023-01-31T06:13:10.231Z,3.90
2023-01-31T06:15:38.796Z,2.23
2023-01-31T06:18:07.025Z,3.40
2023-01-31T06:20:35.174Z,3.17
2023-01-31T06:23:04.781Z,2.70
2023-01-31T06:25:36.003Z,2.23
2023-01-31T06:28:04.684Z,3.20
2023-01-31T06:30:33.327Z,3.67
2023-01-31T06:33:02.234Z,3.40
2023-01-31T06:35:30.653Z,3.10
2023-01-31T06:37:58.817Z,2.93
2023-01-31T06:40:28.367Z,2.73
2023-01-31T06:42:56.579Z,4.17
2023-01-31T06:45:24.755Z,3.70
2023-01-31T06:47:53.211Z,4.27
2023-01-31T06:50:21.508Z,3.50
2023-01-31T06:52:49.642Z,3.70
2023-01-31T06:55:18.086Z,3.53
2023-01-31T06:57:51.356Z,3.13
2023-01-31T07:00:20.436Z,3.17
2023-01-31T07:02:49.409Z,3.63
2023-01-31T07:05:17.910Z,3.23
2023-01-31T07:07:46.211Z,2.73
2023-01-31T07:10:14.864Z,3.50
2023-01-31T07:12:43.083Z,3.03
2023-01-31T07:15:13.345Z,2.90
2023-01-31T07:17:41.609Z,3.43
2023-01-31T07:20:10.954Z,3.37
2023-01-31T07:22:39.102Z,3.40
2023-01-31T07:25:08.142Z,3.87
2023-01-31T07:27:36.389Z,3.87
2023-01-31T07:30:04.874Z,2.80
2023-01-31T07:32:34.531Z,4.30
2023-01-31T07:35:02.695Z,3.03
2023-01-31T07:37:31.076Z,2.67
2023-01-31T07:39:59.309Z,3.10
2023-01-31T07:42:29.011Z,3.10
2023-01-31T07:44:57.153Z,3.77
2023-01-31T07:47:25.338Z,3.53
2023-01-31T07:49:54.875Z,3.73
2023-01-31T07:52:23.101Z,3.83
2023-01-31T07:54:51.354Z,4.27
2023-01-31T07:57:19.527Z,3.13
2023-01-31T07:59:48.236Z,3.20
2023-01-31T08:02:35.451Z,4.07
2023-01-31T08:05:05.879Z,3.60
2023-01-31T08:07:34.128Z,3.20
2023-01-31T08:10:02.275Z,3.33
2023-01-31T08:12:30.812Z,3.17
2023-01-31T08:14:58.966Z,4.27
2023-01-31T08:17:27.294Z,3.47
2023-01-31T08:19:55.489Z,3.00
2023-01-31T08:22:25.618Z,4.00
2023-01-31T08:24:53.766Z,3.27
2023-01-31T08:27:21.913Z,2.90
2023-01-31T08:29:50.073Z,4.00
2023-01-31T08:32:18.280Z,3.27
2023-01-31T08:34:46.970Z,3.00
2023-01-31T08:37:16.746Z,3.63
2023-01-31T08:39:48.743Z,3.17
2023-01-31T08:42:16.887Z,3.17
2023-01-31T08:44:45.070Z,2.93
2023-01-31T08:47:13.210Z,2.97
2023-01-31T08:49:41.735Z,3.20
2023-01-31T08:52:09.915Z,3.10
2023-01-31T08:54:38.126Z,2.93
2023-01-31T08:57:07.715Z,4.30
2023-01-31T08:59:36.324Z,3.80
2023-01-31T09:02:04.755Z,3.87
2023-01-31T09:04:33.172Z,2.63
2023-01-31T09:07:01.693Z,2.90
2023-01-31T09:09:30.669Z,3.37
2023-01-31T09:11:58.845Z,4.47
2023-01-31T09:14:29.056Z,4.57
2023-01-31T09:16:57.321Z,2.33
2023-01-31T09:19:25.553Z,4.43
2023-01-31T09:21:53.712Z,3.63
2023-01-31T09:24:21.833Z,4.23
2023-01-31T09:26:50.004Z,3.77
2023-01-31T09:29:18.189Z,4.63
2023-01-31T09:31:47.758Z,4.70
2023-01-31T09:34:16.900Z,3.10
2023-01-31T09:36:45.424Z,3.57
2023-01-31T09:39:14.086Z,4.53
2023-01-31T09:41:47.065Z,3.63
2023-01-31T09:44:20.637Z,4.37
2023-01-31T09:46:56.768Z,3.87
2023-01-31T09:49:28.361Z,3.77
2023-01-31T09:51:59.757Z,3.50
2023-01-31T09:54:34.049Z,3.60
2023-01-31T09:57:10.510Z,3.63
2023-01-31T09:59:47.905Z,3.07
2023-01-31T10:02:32.283Z,4.00
2023-01-31T10:05:15.771Z,3.73
2023-01-31T10:07:51.076Z,2.87
2023-01-31T10:10:30.355Z,3.40
2023-01-31T10:13:01.461Z,3.43
2023-01-31T10:15:35.481Z,3.10
2023-01-31T10:18:08.773Z,3.60
2023-01-31T10:20:43.990Z,3.47
2023-01-31T10:23:16.862Z,3.13
2023-01-31T10:25:50.200Z,3.43
2023-01-31T10:28:23.198Z,3.47
2023-01-31T10:30:59.859Z,3.00
2023-01-31T10:33:41.325Z,3.23
2023-01-31T10:36:16.417Z,2.83
2023-01-31T10:38:59.619Z,2.77
2023-01-31T10:41:39.796Z,2.30
2023-01-31T10:44:14.480Z,2.70
2023-01-31T10:46:42.742Z,2.83
2023-01-31T10:49:12.633Z,4.03
2023-01-31T10:51:56.939Z,3.10
2023-01-31T10:54:37.731Z,3.50
2023-01-31T10:57:06.146Z,2.20
2023-01-31T10:59:37.385Z,2.50
2023-01-31T11:02:06.234Z,3.30
2023-01-31T11:04:42.407Z,2.73
2023-01-31T11:07:11.382Z,3.57
2023-01-31T11:09:43.153Z,2.93
2023-01-31T11:12:11.471Z,3.17
2023-01-31T11:14:43.333Z,2.80
2023-01-31T11:17:23.336Z,3.10
2023-01-31T11:19:59.506Z,2.50
2023-01-31T11:22:33.461Z,2.03
2023-01-31T11:25:05.169Z,2.13
2023-01-31T11:27:40.925Z,2.90
2023-01-31T11:30:27.053Z,2.53
2023-01-31T11:32:55.983Z,2.70
2023-01-31T11:35:28.946Z,3.60
2023-01-31T11:37:59.727Z,3.10
2023-01-31T11:40:31.632Z,2.87
2023-01-31T11:43:01.611Z,2.93
2023-01-31T11:45:32.194Z,3.43
2023-01-31T11:48:08.304Z,2.87
2023-01-31T11:50:40.106Z,4.13
2023-01-31T11:53:18.923Z,3.13
2023-01-31T11:55:48.899Z,2.97
2023-01-31T11:58:21.766Z,2.90
2023-01-31T12:00:56.795Z,3.37
2023-01-31T12:03:25.836Z,3.23
2023-01-31T12:06:07.608Z,3.17
2023-01-31T12:08:38.184Z,3.10
2023-01-31T12:11:07.716Z,1.97
2023-01-31T12:13:47.895Z,2.90
2023-01-31T12:16:20.330Z,2.83
2023-01-31T12:19:02.437Z,3.57
2023-01-31T12:21:41.416Z,2.57
2023-01-31T12:24:23.300Z,2.60
2023-01-31T12:26:55.914Z,2.50
2023-01-31T12:29:46.037Z,1.93
2023-01-31T12:32:33.215Z,3.20
2023-01-31T12:35:27.467Z,4.00
2023-01-31T12:38:06.147Z,2.40
2023-01-31T12:40:52.570Z,2.53
2023-01-31T12:43:39.447Z,3.33
2023-01-31T12:46:16.168Z,2.80
2023-01-31T12:49:10.388Z,2.90
2023-01-31T12:51:44.427Z,2.47
2023-01-31T12:54:28.231Z,2.70
2023-01-31T12:57:05.355Z,2.60
2023-01-31T12:59:52.764Z,2.30
2023-01-31T13:02:38.696Z,3.10
2023-01-31T13:05:28.226Z,3.40
2023-01-31T13:08:02.823Z,2.90
2023-01-31T13:10:39.003Z,3.60
2023-01-31T13:13:14.450Z,3.30
2023-01-31T13:15:48.758Z,3.30
2023-01-31T13:18:17.917Z,3.10
2023-01-31T13:20:51.343Z,3.83
2023-01-31T13:23:24.431Z,2.50
2023-01-31T13:26:00.438Z,3.73
2023-01-31T13:28:33.235Z,3.20
2023-01-31T13:31:03.863Z,3.40
2023-01-31T13:33:37.018Z,3.60
2023-01-31T13:36:17.950Z,2.80
2023-01-31T13:38:47.296Z,3.20
2023-01-31T13:41:23.517Z,2.23
2023-01-31T13:43:56.990Z,2.53
2023-01-31T13:46:33.322Z,2.90
2023-01-31T13:49:10.746Z,3.90
2023-01-31T13:51:45.609Z,3.53
2023-01-31T13:54:19.796Z,3.27
2023-01-31T13:56:54.489Z,3.50
2023-01-31T13:59:24.988Z,3.70
2023-01-31T14:01:55.361Z,3.30
2023-01-31T14:04:41.452Z,4.00
2023-01-31T14:07:21.252Z,3.03
2023-01-31T14:10:32.659Z,3.93
2023-01-31T14:13:27.772Z,3.90
2023-01-31T14:15:57.584Z,3.97
2023-01-31T14:18:42.955Z,3.57
2023-01-31T14:21:53.992Z,4.47
2023-01-31T14:25:06.577Z,3.83
2023-01-31T14:28:03.737Z,4.30
2023-01-31T14:30:42.742Z,5.20
2023-01-31T14:33:23.542Z,5.13
2023-01-31T14:36:21.217Z,4.70
2023-01-31T14:39:24.624Z,4.43
2023-01-31T14:42:11.989Z,3.80
2023-01-31T14:44:53.524Z,4.70
2023-01-31T14:47:38.043Z,4.30
2023-01-31T14:50:38.486Z,4.30
2023-01-31T14:53:19.427Z,4.03
2023-01-31T14:56:05.682Z,5.00
2023-01-31T14:58:36.113Z,4.70
2023-01-31T15:01:08.696Z,5.10
2023-01-31T15:03:40.078Z,5.07
2023-01-31T15:06:11.706Z,5.30
2023-01-31T15:08:46.213Z,5.70
2023-01-31T15:11:41.314Z,3.73
2023-01-31T15:14:35.110Z,4.60
2023-01-31T15:17:27.334Z,4.70
2023-01-31T15:20:07.454Z,4.63
2023-01-31T15:22:41.430Z,3.90
2023-01-31T15:25:23.439Z,4.50
2023-01-31T15:27:52.494Z,4.33
2023-01-31T15:30:24.684Z,5.47
2023-01-31T15:32:57.693Z,5.10
2023-01-31T15:35:30.761Z,4.00
2023-01-31T15:38:06.250Z,4.83
2023-01-31T15:40:34.604Z,5.17
2023-01-31T15:43:18.860Z,4.20
2023-01-31T15:45:51.420Z,4.87
2023-01-31T15:48:24.037Z,4.73
2023-01-31T15:50:54.037Z,4.70
2023-01-31T15:53:24.599Z,4.70
2023-01-31T15:55:56.186Z,5.43
2023-01-31T15:58:26.874Z,4.30
2023-01-31T16:00:56.816Z,4.57
2023-01-31T16:03:28.993Z,4.47
2023-01-31T16:05:58.631Z,4.73
2023-01-31T16:08:34.832Z,4.37
2023-01-31T16:11:04.864Z,6.13
2023-01-31T16:13:34.017Z,4.20
2023-01-31T16:16:02.287Z,4.63
2023-01-31T16:18:32.479Z,4.33
2023-01-31T16:21:15.819Z,4.30
2023-01-31T16:23:45.660Z,4.47
2023-01-31T16:26:16.800Z,4.80
2023-01-31T16:28:46.893Z,5.68
2023-01-31T16:31:17.197Z,5.30
2023-01-31T16:33:52.738Z,4.63
2023-01-31T16:36:25.306Z,5.60
2023-01-31T16:38:59.111Z,5.50
2023-01-31T16:41:41.850Z,4.77
2023-01-31T16:44:14.738Z,5.27
2023-01-31T16:46:45.561Z,5.30
2023-01-31T16:49:22.732Z,4.70
2023-01-31T16:51:52.236Z,5.37
2023-01-31T16:54:25.070Z,5.43
2023-01-31T16:57:21.967Z,5.20
2023-01-31T16:59:51.750Z,4.50
2023-01-31T17:02:24.829Z,5.13
2023-01-31T17:04:56.650Z,5.93
2023-01-31T17:07:26.915Z,5.47
2023-01-31T17:09:57.565Z,6.10
2023-01-31T17:12:28.409Z,6.83
2023-01-31T17:15:00.766Z,6.50
2023-01-31T17:17:34.386Z,5.37
2023-01-31T17:20:04.528Z,5.40
2023-01-31T17:22:32.807Z,4.70
2023-01-31T17:25:00.992Z,5.83
2023-01-31T17:27:29.161Z,5.63
2023-01-31T17:29:57.466Z,6.07
2023-01-31T17:32:25.666Z,5.60
2023-01-31T17:34:53.861Z,5.73
2023-01-31T17:37:31.183Z,5.30
2023-01-31T17:40:00.820Z,6.07
2023-01-31T17:42:29.036Z,5.83
2023-01-31T17:44:57.190Z,5.67
2023-01-31T17:47:27.057Z,6.43
2023-01-31T17:49:57.483Z,6.20
2023-01-31T17:52:27.791Z,5.90
2023-01-31T17:54:56.113Z,6.10
2023-01-31T17:57:24.619Z,6.90
2023-01-31T17:59:59.029Z,4.90
2023-01-31T18:02:35.844Z,6.57
2023-01-31T18:05:04.831Z,6.50
2023-01-31T18:07:34.434Z,6.20
2023-01-31T18:10:02.626Z,6.03
2023-01-31T18:12:31.023Z,5.10
2023-01-31T18:14:59.255Z,6.13
2023-01-31T18:17:27.743Z,6.30
2023-01-31T18:19:56.155Z,6.63
2023-01-31T18:22:25.074Z,6.63
2023-01-31T18:24:54.652Z,7.20
2023-01-31T18:27:22.927Z,6.43
2023-01-31T18:29:51.215Z,6.67
2023-01-31T18:32:20.321Z,7.40
2023-01-31T18:34:48.680Z,7.77
2023-01-31T18:37:20.351Z,7.50
2023-01-31T18:39:53.074Z,7.07
2023-01-31T18:42:22.946Z,7.40
2023-01-31T18:44:51.463Z,8.43
2023-01-31T18:47:19.728Z,8.43
2023-01-31T18:49:48.142Z,7.77
2023-01-31T18:52:17.068Z,7.50
2023-01-31T18:54:49.133Z,8.70
2023-01-31T18:57:17.387Z,7.17
2023-01-31T18:59:46.966Z,7.83
2023-01-31T19:02:15.418Z,8.63
2023-01-31T19:04:46.365Z,8.67
2023-01-31T19:07:14.592Z,13.60
2023-01-31T19:09:42.852Z,9.17
2023-01-31T19:12:11.044Z,9.27
2023-01-31T19:14:39.204Z,8.40
2023-01-31T19:17:08.858Z,9.87
2023-01-31T19:19:37.057Z,9.50
2023-01-31T19:22:05.730Z,8.97
2023-01-31T19:24:33.932Z,9.40
2023-01-31T19:27:02.142Z,10.00
2023-01-31T19:29:31.351Z,11.60
2023-01-31T19:31:59.565Z,12.43
2023-01-31T19:34:29.363Z,10.97
2023-01-31T19:36:58.010Z,11.33
2023-01-31T19:39:26.189Z,12.40
2023-01-31T19:41:54.516Z,10.80
2023-01-31T19:44:22.779Z,11.37
2023-01-31T19:46:52.151Z,13.27
2023-01-31T19:49:22.111Z,12.33
2023-01-31T19:51:51.752Z,12.20
2023-01-31T19:54:20.826Z,12.90
2023-01-31T19:56:49.143Z,12.57
2023-01-31T19:59:17.729Z,12.97
2023-01-31T20:01:46.010Z,15.57
2023-01-31T20:04:14.440Z,14.33
2023-01-31T20:06:43.022Z,13.77
2023-01-31T20:09:20.008Z,13.40
2023-01-31T20:11:51.627Z,13.10
2023-01-31T20:14:20.622Z,11.80
2023-01-31T20:16:49.100Z,12.00
2023-01-31T20:19:19.618Z,12.20
2023-01-31T20:21:48.818Z,12.60
2023-01-31T20:24:18.671Z,12.43
2023-01-31T20:26:47.111Z,11.23
2023-01-31T20:29:16.047Z,11.20
2023-01-31T20:31:44.485Z,11.10
2023-01-31T20:34:12.992Z,12.10
2023-01-31T20:36:41.229Z,11.70
2023-01-31T20:39:09.428Z,10.57
2023-01-31T20:41:39.048Z,11.37
2023-01-31T20:44:07.413Z,10.30
2023-01-31T20:46:36.099Z,10.80
2023-01-31T20:49:04.253Z,11.40
2023-01-31T20:51:32.538Z,10.27
2023-01-31T20:54:01.047Z,9.90
2023-01-31T20:56:29.448Z,10.93
2023-01-31T20:59:01.395Z,12.10
2023-01-31T21:01:29.755Z,12.07
2023-01-31T21:03:57.919Z,11.33
2023-01-31T21:06:26.141Z,11.17
2023-01-31T21:08:55.243Z,12.10
2023-01-31T21:11:23.809Z,10.97
2023-01-31T21:13:52.023Z,10.73
2023-01-31T21:16:21.622Z,11.10
2023-01-31T21:18:49.832Z,11.50
2023-01-31T21:21:23.399Z,11.03
2023-01-31T21:23:52.684Z,10.40
2023-01-31T21:26:22.351Z,10.40
2023-01-31T21:28:51.037Z,11.77
2023-01-31T21:31:22.023Z,10.00
2023-01-31T21:33:51.331Z,9.83
2023-01-31T21:36:21.172Z,10.37
2023-01-31T21:38:49.646Z,10.23
2023-01-31T21:41:35.537Z,11.17
2023-01-31T21:44:03.893Z,9.63
2023-01-31T21:46:33.867Z,9.23
2023-01-31T21:49:02.231Z,9.30
2023-01-31T21:51:30.361Z,8.97
2023-01-31T21:53:58.568Z,8.60
2023-01-31T21:56:29.752Z,9.60
2023-01-31T21:58:58.877Z,9.13
2023-01-31T22:01:29.076Z,8.13
2023-01-31T22:03:59.296Z,7.93
2023-01-31T22:06:31.540Z,9.43
2023-01-31T22:09:02.398Z,9.77
2023-01-31T22:11:33.190Z,10.23
2023-01-31T22:14:02.485Z,10.20
2023-01-31T22:16:31.040Z,9.80
2023-01-31T22:19:01.881Z,10.30
2023-01-31T22:21:31.873Z,11.00
2023-01-31T22:24:01.630Z,10.50
2023-01-31T22:26:31.477Z,10.53
2023-01-31T22:29:01.801Z,11.60
2023-01-31T22:31:30.943Z,9.33
2023-01-31T22:34:01.244Z,11.77
2023-01-31T22:36:29.493Z,10.97
2023-01-31T22:38:57.845Z,12.17
2023-01-31T22:41:26.350Z,11.30
2023-01-31T22:43:55.984Z,12.97
2023-01-31T22:46:26.328Z,12.50
2023-01-31T22:48:54.675Z,12.70
2023-01-31T22:51:25.857Z,12.73
2023-01-31T22:53:54.990Z,15.30
2023-01-31T22:56:25.257Z,12.97
2023-01-31T22:58:57.243Z,13.73
2023-01-31T23:01:27.522Z,14.37
2023-01-31T23:03:58.475Z,16.07
2023-01-31T23:06:29.420Z,13.20
2023-01-31T23:08:57.757Z,13.13
2023-01-31T23:11:26.298Z,14.80
2023-01-31T23:13:54.879Z,13.47
2023-01-31T23:16:45.880Z,11.37
2023-01-31T23:19:14.530Z,10.47
2023-01-31T23:21:44.714Z,10.00
2023-01-31T23:24:14.527Z,15.50
2023-01-31T23:26:43.086Z,11.07
2023-01-31T23:29:11.863Z,11.83
2023-01-31T23:31:40.279Z,10.90
2023-01-31T23:34:08.522Z,10.40
2023-01-31T23:36:37.086Z,10.50
2023-01-31T23:39:06.963Z,13.03
2023-01-31T23:41:35.143Z,12.87
2023-01-31T23:44:03.606Z,10.83
2023-01-31T23:46:32.114Z,9.70
2023-01-31T23:49:00.312Z,9.80
2023-01-31T23:51:30.660Z,9.50
2023-01-31T23:53:58.863Z,8.70
2023-01-31T23:56:28.412Z,8.77
2023-01-31T23:58:56.641Z,8.13
